createdAt,value
2022-09-16T00:00:32.391Z,1.70
2022-09-16T00:02:59.243Z,2.00
2022-09-16T00:05:26.465Z,1.80
2022-09-16T00:07:54.195Z,2.10
2022-09-16T00:10:22.246Z,1.95
2022-09-16T00:12:49.580Z,2.30
2022-09-16T00:15:17.346Z,2.08
2022-09-16T00:17:44.110Z,1.77
2022-09-16T00:20:11.231Z,2.00
2022-09-16T00:22:38.200Z,1.88
2022-09-16T00:25:05.336Z,1.85
2022-09-16T00:27:32.190Z,1.90
2022-09-16T00:29:59.142Z,2.50
2022-09-16T00:32:26.023Z,1.90
2022-09-16T00:34:52.887Z,2.03
2022-09-16T00:37:19.815Z,1.60
2022-09-16T00:39:50.662Z,1.90
2022-09-16T00:42:18.874Z,2.20
2022-09-16T00:44:59.660Z,1.98
2022-09-16T00:47:37.417Z,1.98
2022-09-16T00:50:22.329Z,2.20
2022-09-16T00:52:51.967Z,2.40
2022-09-16T00:55:24.808Z,2.10
2022-09-16T00:57:53.487Z,2.10
2022-09-16T01:00:20.379Z,2.35
2022-09-16T01:02:48.457Z,2.22
2022-09-16T01:05:22.636Z,2.00
2022-09-16T01:07:51.712Z,2.15
2022-09-16T01:10:22.798Z,2.38
2022-09-16T01:12:54.655Z,1.80
2022-09-16T01:15:31.680Z,2.05
2022-09-16T01:18:17.062Z,1.77
2022-09-16T01:21:00.314Z,1.80
2022-09-16T01:23:36.650Z,2.20
2022-09-16T01:26:41.092Z,2.05
2022-09-16T01:29:25.914Z,2.05
2022-09-16T01:32:06.499Z,1.90
2022-09-16T01:35:02.856Z,2.25
2022-09-16T01:37:47.793Z,2.10
2022-09-16T01:40:28.684Z,2.30
2022-09-16T01:43:38.780Z,2.08
2022-09-16T01:46:28.343Z,2.20
2022-09-16T01:49:09.477Z,1.90
2022-09-16T01:51:41.522Z,2.25
2022-09-16T01:54:20.867Z,2.00
2022-09-16T01:57:09.100Z,2.17
2022-09-16T01:59:46.744Z,2.30
2022-09-16T02:02:37.871Z,2.20
2022-09-16T02:05:11.778Z,2.85
2022-09-16T02:07:42.582Z,2.80
2022-09-16T02:10:18.621Z,3.30
2022-09-16T02:12:49.833Z,2.85
2022-09-16T02:15:22.390Z,3.33
2022-09-16T02:17:59.901Z,3.53
2022-09-16T02:20:30.640Z,3.90
2022-09-16T02:23:14.716Z,3.72
2022-09-16T02:25:45.310Z,3.55
2022-09-16T02:28:17.908Z,3.35
2022-09-16T02:30:49.891Z,3.90
2022-09-16T02:33:18.585Z,3.97
2022-09-16T02:35:51.331Z,3.85
2022-09-16T02:38:23.504Z,3.80
2022-09-16T02:40:57.356Z,3.92
2022-09-16T02:43:25.843Z,3.80
2022-09-16T02:45:52.966Z,3.33
2022-09-16T02:48:28.998Z,3.63
2022-09-16T02:51:09.048Z,3.47
2022-09-16T02:54:05.175Z,3.70
2022-09-16T02:56:40.249Z,3.13
2022-09-16T02:59:10.431Z,3.50
2022-09-16T03:01:41.617Z,3.53
2022-09-16T03:04:10.201Z,3.05
2022-09-16T03:06:37.409Z,4.15
2022-09-16T03:09:07.376Z,3.40
2022-09-16T03:11:40.410Z,3.53
2022-09-16T03:14:51.312Z,3.58
2022-09-16T03:17:51.381Z,3.85
2022-09-16T03:20:28.364Z,3.95
2022-09-16T03:23:20.212Z,3.75
2022-09-16T03:25:59.193Z,3.47
2022-09-16T03:28:37.960Z,5.00
2022-09-16T03:31:13.189Z,5.30
2022-09-16T03:34:08.019Z,4.25
2022-09-16T03:36:39.374Z,3.50
2022-09-16T03:39:06.598Z,3.50
2022-09-16T03:41:34.975Z,4.00
2022-09-16T03:44:04.268Z,3.67
2022-09-16T03:46:31.938Z,3.35
2022-09-16T03:48:59.308Z,4.03
2022-09-16T03:51:26.896Z,3.90
2022-09-16T03:53:55.519Z,4.03
2022-09-16T03:56:25.039Z,3.50
2022-09-16T03:58:52.190Z,4.28
2022-09-16T04:01:20.713Z,3.75
2022-09-16T04:03:47.815Z,3.45
2022-09-16T04:06:16.004Z,3.67
2022-09-16T04:08:45.548Z,3.60
2022-09-16T04:11:12.463Z,3.67
2022-09-16T04:13:39.863Z,8.73
2022-09-16T04:16:06.830Z,7.75
2022-09-16T04:18:34.862Z,5.75
2022-09-16T04:21:04.923Z,4.68
2022-09-16T04:23:32.111Z,3.92
2022-09-16T04:26:01.523Z,4.20
2022-09-16T04:28:32.080Z,4.53
2022-09-16T04:31:07.315Z,4.05
2022-09-16T04:33:35.982Z,4.40
2022-09-16T04:36:07.128Z,3.40
2022-09-16T04:38:34.885Z,3.60
2022-09-16T04:41:07.669Z,3.67
2022-09-16T04:43:35.247Z,3.70
2022-09-16T04:46:02.829Z,5.65
2022-09-16T04:48:30.930Z,6.15
2022-09-16T04:51:09.215Z,3.78
2022-09-16T04:53:37.867Z,3.65
2022-09-16T04:56:05.019Z,6.13
2022-09-16T04:58:31.869Z,4.20
2022-09-16T05:01:05.285Z,4.15
2022-09-16T05:03:32.985Z,5.20
2022-09-16T05:06:08.303Z,4.80
2022-09-16T05:08:35.486Z,4.20
2022-09-16T05:11:11.290Z,4.40
2022-09-16T05:13:38.984Z,4.43
2022-09-16T05:16:11.237Z,4.03
2022-09-16T05:18:39.778Z,4.03
2022-09-16T05:21:13.229Z,4.60
2022-09-16T05:23:44.521Z,4.20
2022-09-16T05:26:16.358Z,4.63
2022-09-16T05:28:43.468Z,4.50
2022-09-16T05:31:20.237Z,4.00
2022-09-16T05:33:54.090Z,4.43
2022-09-16T05:36:21.402Z,3.83
2022-09-16T05:39:11.077Z,4.13
2022-09-16T05:41:35.762Z,4.55
2022-09-16T05:44:02.795Z,3.42
2022-09-16T05:46:30.055Z,4.13
2022-09-16T05:48:56.812Z,4.35
2022-09-16T05:51:25.885Z,5.18
2022-09-16T05:53:54.241Z,5.25
2022-09-16T05:56:25.687Z,4.53
2022-09-16T05:58:54.237Z,3.85
2022-09-16T06:01:24.255Z,3.35
2022-09-16T06:03:52.293Z,3.63
2022-09-16T06:06:25.697Z,2.50
2022-09-16T06:08:55.116Z,3.25
2022-09-16T06:11:22.542Z,3.33
2022-09-16T06:13:55.860Z,3.83
2022-09-16T06:16:25.865Z,3.33
2022-09-16T06:18:53.592Z,3.13
2022-09-16T06:21:21.236Z,3.03
2022-09-16T06:23:48.074Z,3.28
2022-09-16T06:26:20.883Z,2.83
2022-09-16T06:28:48.777Z,2.90
2022-09-16T06:31:21.186Z,2.58
2022-09-16T06:33:50.452Z,2.67
2022-09-16T06:36:23.037Z,2.90
2022-09-16T06:38:51.195Z,2.63
2022-09-16T06:41:19.650Z,3.13
2022-09-16T06:43:47.409Z,3.08
2022-09-16T06:46:17.242Z,2.90
2022-09-16T06:48:50.634Z,2.45
2022-09-16T06:51:20.556Z,2.88
2022-09-16T06:53:47.316Z,3.05
2022-09-16T06:56:16.996Z,2.75
2022-09-16T06:58:48.019Z,2.33
2022-09-16T07:01:20.508Z,2.28
2022-09-16T07:03:50.197Z,2.40
2022-09-16T07:06:19.621Z,2.40
2022-09-16T07:08:47.099Z,2.70
2022-09-16T07:11:19.381Z,2.10
2022-09-16T07:13:47.658Z,2.63
2022-09-16T07:16:17.944Z,2.42
2022-09-16T07:18:44.799Z,1.10
2022-09-16T07:21:14.354Z,1.67
2022-09-16T07:23:42.486Z,2.00
2022-09-16T07:26:13.690Z,1.90
2022-09-16T07:28:41.985Z,1.20
2022-09-16T07:31:11.750Z,1.10
2022-09-16T07:33:41.060Z,1.92
2022-09-16T07:36:10.231Z,1.58
2022-09-16T07:38:37.753Z,1.33
2022-09-16T07:41:13.299Z,1.80
2022-09-16T07:43:41.469Z,1.90
2022-09-16T07:46:10.778Z,1.90
2022-09-16T07:48:38.190Z,1.42
2022-09-16T07:51:16.622Z,0.90
2022-09-16T07:53:44.445Z,1.70
2022-09-16T07:56:23.610Z,1.77
2022-09-16T07:58:50.391Z,1.35
2022-09-16T08:01:17.669Z,1.45
2022-09-16T08:03:45.846Z,1.40
2022-09-16T08:06:18.539Z,1.90
2022-09-16T08:08:46.017Z,1.67
2022-09-16T08:11:14.832Z,1.50
2022-09-16T08:13:43.081Z,1.52
2022-09-16T08:16:16.389Z,1.35
2022-09-16T08:18:44.036Z,0.90
2022-09-16T08:21:16.631Z,1.15
2022-09-16T08:23:43.716Z,1.00
2022-09-16T08:26:12.276Z,1.08
2022-09-16T08:28:50.962Z,1.08
2022-09-16T08:31:28.860Z,1.00
2022-09-16T08:33:56.429Z,1.00
2022-09-16T08:36:25.306Z,1.33
2022-09-16T08:38:55.334Z,0.77
2022-09-16T08:41:46.965Z,0.80
2022-09-16T08:44:13.943Z,1.00
2022-09-16T08:46:51.479Z,1.30
2022-09-16T08:49:34.954Z,1.17
2022-09-16T08:52:10.379Z,1.15
2022-09-16T08:54:52.155Z,1.02
2022-09-16T08:57:22.886Z,1.48
2022-09-16T08:59:57.810Z,0.98
2022-09-16T09:02:36.408Z,1.00
2022-09-16T09:05:15.053Z,0.90
2022-09-16T09:08:04.663Z,1.10
2022-09-16T09:10:51.611Z,1.33
2022-09-16T09:13:39.882Z,1.00
2022-09-16T09:16:18.745Z,1.30
2022-09-16T09:18:51.892Z,1.27
2022-09-16T09:21:27.858Z,1.00
2022-09-16T09:24:17.695Z,0.80
2022-09-16T09:26:56.071Z,0.98
2022-09-16T09:29:44.004Z,1.17
2022-09-16T09:32:48.963Z,0.88
2022-09-16T09:35:19.879Z,1.02
2022-09-16T09:38:25.786Z,0.90
2022-09-16T09:40:58.844Z,1.08
2022-09-16T09:43:31.712Z,1.65
2022-09-16T09:46:16.674Z,0.82
2022-09-16T09:49:03.024Z,0.90
2022-09-16T09:51:38.138Z,1.17
2022-09-16T09:54:27.271Z,0.98
2022-09-16T09:56:59.886Z,0.73
2022-09-16T09:59:48.540Z,0.90
2022-09-16T10:02:19.443Z,0.98
2022-09-16T10:04:46.698Z,0.85
2022-09-16T10:07:16.197Z,1.08
2022-09-16T10:09:54.929Z,1.08
2022-09-16T10:12:34.627Z,0.95
2022-09-16T10:15:02.232Z,0.77
2022-09-16T10:17:30.493Z,0.73
2022-09-16T10:19:59.352Z,0.60
2022-09-16T10:22:30.371Z,0.68
2022-09-16T10:24:58.396Z,0.57
2022-09-16T10:27:29.175Z,0.55
2022-09-16T10:30:16.622Z,0.90
2022-09-16T12:08:48.922Z,0.60
2022-09-16T12:11:22.037Z,0.43
2022-09-16T12:14:08.554Z,0.90
2022-09-16T12:16:41.236Z,1.83
2022-09-16T12:19:17.447Z,3.42
2022-09-16T12:21:49.485Z,1.13
2022-09-16T12:24:23.784Z,0.70
2022-09-16T12:32:26.170Z,1.30
2022-09-16T12:35:02.401Z,1.25
2022-09-16T12:37:37.197Z,6.85
2022-09-16T12:45:22.505Z,2.50
2022-09-16T12:51:19.759Z,1.27
